sensor_id;sensor_type;location;lat;lon;timestamp;P1;durP1;ratioP1;P2;durP2;ratioP2
19205;SDS011;59358;52.134;5.596;2023-02-23T00:01:13;108.38;;;54.58;;
19205;SDS011;59358;52.134;5.596;2023-02-23T00:03:41;104.60;;;52.67;;
19205;SDS011;59358;52.134;5.596;2023-02-23T00:06:08;105.80;;;53.70;;
19205;SDS011;59358;52.134;5.596;2023-02-23T00:08:38;103.40;;;51.90;;
19205;SDS011;59358;52.134;5.596;2023-02-23T00:11:06;107.70;;;54.22;;
19205;SDS011;59358;52.134;5.596;2023-02-23T00:13:36;109.85;;;54.92;;
19205;SDS011;59358;52.134;5.596;2023-02-23T00:16:04;106.35;;;54.47;;
19205;SDS011;59358;52.134;5.596;2023-02-23T00:18:33;108.35;;;54.88;;
19205;SDS011;59358;52.134;5.596;2023-02-23T00:21:09;106.88;;;53.90;;
19205;SDS011;59358;52.134;5.596;2023-02-23T00:23:39;105.32;;;53.75;;
19205;SDS011;59358;52.134;5.596;2023-02-23T00:26:07;103.18;;;52.42;;
19205;SDS011;59358;52.134;5.596;2023-02-23T00:28:34;103.63;;;52.30;;
19205;SDS011;59358;52.134;5.596;2023-02-23T00:31:01;101.95;;;51.67;;
19205;SDS011;59358;52.134;5.596;2023-02-23T00:33:29;103.57;;;53.05;;
19205;SDS011;59358;52.134;5.596;2023-02-23T00:36:03;100.25;;;52.67;;
19205;SDS011;59358;52.134;5.596;2023-02-23T00:38:32;100.45;;;51.40;;
19205;SDS011;59358;52.134;5.596;2023-02-23T00:41:02;98.32;;;51.00;;
19205;SDS011;59358;52.134;5.596;2023-02-23T00:43:32;108.18;;;53.15;;
19205;SDS011;59358;52.134;5.596;2023-02-23T00:46:00;102.10;;;53.10;;
19205;SDS011;59358;52.134;5.596;2023-02-23T00:48:29;100.88;;;51.60;;
19205;SDS011;59358;52.134;5.596;2023-02-23T00:50:57;96.05;;;50.35;;
19205;SDS011;59358;52.134;5.596;2023-02-23T00:53:26;100.32;;;51.28;;
19205;SDS011;59358;52.134;5.596;2023-02-23T00:55:53;106.53;;;51.40;;
19205;SDS011;59358;52.134;5.596;2023-02-23T00:58:20;96.47;;;48.95;;
19205;SDS011;59358;52.134;5.596;2023-02-23T01:00:47;103.90;;;51.28;;
19205;SDS011;59358;52.134;5.596;2023-02-23T01:03:14;102.72;;;49.65;;
19205;SDS011;59358;52.134;5.596;2023-02-23T01:05:41;106.13;;;49.90;;
19205;SDS011;59358;52.134;5.596;2023-02-23T01:08:08;102.30;;;47.72;;
19205;SDS011;59358;52.134;5.596;2023-02-23T01:10:39;96.63;;;47.65;;
19205;SDS011;59358;52.134;5.596;2023-02-23T01:13:07;97.53;;;47.47;;
19205;SDS011;59358;52.134;5.596;2023-02-23T01:15:39;100.88;;;48.45;;
19205;SDS011;59358;52.134;5.596;2023-02-23T01:18:07;111.50;;;50.13;;
19205;SDS011;59358;52.134;5.596;2023-02-23T01:20:34;112.82;;;50.53;;
19205;SDS011;59358;52.134;5.596;2023-02-23T01:23:02;109.60;;;50.45;;
19205;SDS011;59358;52.134;5.596;2023-02-23T01:25:29;116.45;;;51.13;;
19205;SDS011;59358;52.134;5.596;2023-02-23T01:27:57;114.72;;;51.90;;
19205;SDS011;59358;52.134;5.596;2023-02-23T01:30:24;110.75;;;49.47;;
19205;SDS011;59358;52.134;5.596;2023-02-23T01:32:51;109.20;;;49.90;;
19205;SDS011;59358;52.134;5.596;2023-02-23T01:35:18;105.35;;;49.33;;
19205;SDS011;59358;52.134;5.596;2023-02-23T01:37:45;112.95;;;51.13;;
19205;SDS011;59358;52.134;5.596;2023-02-23T01:40:14;109.15;;;50.65;;
19205;SDS011;59358;52.134;5.596;2023-02-23T01:42:53;112.80;;;50.65;;
19205;SDS011;59358;52.134;5.596;2023-02-23T01:45:26;110.97;;;51.67;;
19205;SDS011;59358;52.134;5.596;2023-02-23T01:47:56;110.07;;;50.95;;
19205;SDS011;59358;52.134;5.596;2023-02-23T01:50:27;118.25;;;51.80;;
19205;SDS011;59358;52.134;5.596;2023-02-23T01:52:58;112.72;;;50.15;;
19205;SDS011;59358;52.134;5.596;2023-02-23T01:55:25;118.90;;;54.33;;
19205;SDS011;59358;52.134;5.596;2023-02-23T01:57:55;112.45;;;51.90;;
19205;SDS011;59358;52.134;5.596;2023-02-23T02:00:27;115.07;;;51.67;;
19205;SDS011;59358;52.134;5.596;2023-02-23T02:02:56;102.78;;;47.88;;
19205;SDS011;59358;52.134;5.596;2023-02-23T02:05:25;100.65;;;47.25;;
19205;SDS011;59358;52.134;5.596;2023-02-23T02:07:53;104.63;;;50.15;;
19205;SDS011;59358;52.134;5.596;2023-02-23T02:10:23;111.53;;;50.90;;
19205;SDS011;59358;52.134;5.596;2023-02-23T02:13:11;110.00;;;50.80;;
19205;SDS011;59358;52.134;5.596;2023-02-23T02:18:51;109.68;;;51.58;;
19205;SDS011;59358;52.134;5.596;2023-02-23T02:21:55;106.78;;;51.90;;
19205;SDS011;59358;52.134;5.596;2023-02-23T02:27:55;115.90;;;52.85;;
19205;SDS011;59358;52.134;5.596;2023-02-23T02:30:55;113.82;;;52.45;;
19205;SDS011;59358;52.134;5.596;2023-02-23T02:33:58;122.72;;;53.78;;
19205;SDS011;59358;52.134;5.596;2023-02-23T02:36:48;112.25;;;52.10;;
19205;SDS011;59358;52.134;5.596;2023-02-23T02:39:31;110.90;;;51.83;;
19205;SDS011;59358;52.134;5.596;2023-02-23T02:42:12;107.72;;;50.85;;
19205;SDS011;59358;52.134;5.596;2023-02-23T02:44:49;110.88;;;52.28;;
19205;SDS011;59358;52.134;5.596;2023-02-23T02:47:21;117.28;;;52.53;;
19205;SDS011;59358;52.134;5.596;2023-02-23T02:49:51;117.30;;;55.88;;
19205;SDS011;59358;52.134;5.596;2023-02-23T02:52:28;122.90;;;54.13;;
19205;SDS011;59358;52.134;5.596;2023-02-23T02:54:59;120.15;;;53.75;;
19205;SDS011;59358;52.134;5.596;2023-02-23T02:57:33;116.38;;;54.05;;
19205;SDS011;59358;52.134;5.596;2023-02-23T03:00:00;122.65;;;54.10;;
19205;SDS011;59358;52.134;5.596;2023-02-23T03:02:44;117.80;;;53.53;;
19205;SDS011;59358;52.134;5.596;2023-02-23T03:05:38;116.47;;;54.10;;
19205;SDS011;59358;52.134;5.596;2023-02-23T03:08:30;114.90;;;52.90;;
19205;SDS011;59358;52.134;5.596;2023-02-23T03:11:22;117.22;;;55.70;;
19205;SDS011;59358;52.134;5.596;2023-02-23T03:14:16;125.28;;;54.25;;
19205;SDS011;59358;52.134;5.596;2023-02-23T03:17:10;114.43;;;52.97;;
19205;SDS011;59358;52.134;5.596;2023-02-23T03:20:02;111.32;;;53.05;;
19205;SDS011;59358;52.134;5.596;2023-02-23T03:22:55;126.13;;;55.53;;
19205;SDS011;59358;52.134;5.596;2023-02-23T03:25:49;118.63;;;55.33;;
19205;SDS011;59358;52.134;5.596;2023-02-23T03:28:43;118.05;;;53.63;;
19205;SDS011;59358;52.134;5.596;2023-02-23T03:31:36;123.60;;;55.53;;
19205;SDS011;59358;52.134;5.596;2023-02-23T03:34:25;127.30;;;56.40;;
19205;SDS011;59358;52.134;5.596;2023-02-23T03:37:15;134.48;;;57.10;;
19205;SDS011;59358;52.134;5.596;2023-02-23T03:40:05;135.90;;;58.00;;
19205;SDS011;59358;52.134;5.596;2023-02-23T03:42:57;129.45;;;56.38;;
19205;SDS011;59358;52.134;5.596;2023-02-23T03:45:43;134.93;;;58.67;;
19205;SDS011;59358;52.134;5.596;2023-02-23T03:48:30;135.25;;;58.35;;
19205;SDS011;59358;52.134;5.596;2023-02-23T03:51:17;136.80;;;57.08;;
19205;SDS011;59358;52.134;5.596;2023-02-23T03:54:06;132.95;;;58.92;;
19205;SDS011;59358;52.134;5.596;2023-02-23T03:56:55;147.27;;;59.08;;
19205;SDS011;59358;52.134;5.596;2023-02-23T03:59:45;149.52;;;60.92;;
19205;SDS011;59358;52.134;5.596;2023-02-23T04:02:33;127.40;;;56.85;;
19205;SDS011;59358;52.134;5.596;2023-02-23T04:05:19;146.00;;;59.70;;
19205;SDS011;59358;52.134;5.596;2023-02-23T04:08:06;153.38;;;60.53;;
19205;SDS011;59358;52.134;5.596;2023-02-23T04:10:59;145.10;;;60.05;;
19205;SDS011;59358;52.134;5.596;2023-02-23T04:13:50;148.93;;;62.67;;
19205;SDS011;59358;52.134;5.596;2023-02-23T04:16:24;152.70;;;63.58;;
19205;SDS011;59358;52.134;5.596;2023-02-23T04:18:50;166.88;;;66.45;;
19205;SDS011;59358;52.134;5.596;2023-02-23T04:21:17;165.68;;;64.50;;
19205;SDS011;59358;52.134;5.596;2023-02-23T04:23:44;159.30;;;62.13;;
19205;SDS011;59358;52.134;5.596;2023-02-23T04:26:11;167.75;;;66.40;;
19205;SDS011;59358;52.134;5.596;2023-02-23T04:28:38;159.52;;;62.75;;
19205;SDS011;59358;52.134;5.596;2023-02-23T04:31:04;159.95;;;63.20;;
19205;SDS011;59358;52.134;5.596;2023-02-23T04:33:33;158.70;;;61.33;;
19205;SDS011;59358;52.134;5.596;2023-02-23T04:35:59;171.35;;;63.42;;
19205;SDS011;59358;52.134;5.596;2023-02-23T04:38:26;164.73;;;64.32;;
19205;SDS011;59358;52.134;5.596;2023-02-23T04:40:53;173.20;;;66.43;;
19205;SDS011;59358;52.134;5.596;2023-02-23T04:43:20;156.20;;;60.22;;
19205;SDS011;59358;52.134;5.596;2023-02-23T04:45:47;156.35;;;61.30;;
19205;SDS011;59358;52.134;5.596;2023-02-23T04:48:14;155.82;;;62.65;;
19205;SDS011;59358;52.134;5.596;2023-02-23T04:50:42;172.40;;;66.35;;
19205;SDS011;59358;52.134;5.596;2023-02-23T04:53:09;181.45;;;65.70;;
19205;SDS011;59358;52.134;5.596;2023-02-23T04:55:36;170.65;;;65.70;;
19205;SDS011;59358;52.134;5.596;2023-02-23T04:58:03;171.98;;;63.20;;
19205;SDS011;59358;52.134;5.596;2023-02-23T05:00:30;159.18;;;62.72;;
19205;SDS011;59358;52.134;5.596;2023-02-23T05:02:58;174.52;;;65.70;;
19205;SDS011;59358;52.134;5.596;2023-02-23T05:05:24;196.23;;;70.82;;
19205;SDS011;59358;52.134;5.596;2023-02-23T05:07:52;185.18;;;68.93;;
19205;SDS011;59358;52.134;5.596;2023-02-23T05:10:19;188.65;;;69.35;;
19205;SDS011;59358;52.134;5.596;2023-02-23T05:12:46;194.25;;;69.63;;
19205;SDS011;59358;52.134;5.596;2023-02-23T05:15:13;191.68;;;70.20;;
19205;SDS011;59358;52.134;5.596;2023-02-23T05:17:41;178.10;;;67.18;;
19205;SDS011;59358;52.134;5.596;2023-02-23T05:20:08;200.20;;;71.10;;
19205;SDS011;59358;52.134;5.596;2023-02-23T05:22:37;201.88;;;71.50;;
19205;SDS011;59358;52.134;5.596;2023-02-23T05:25:05;195.93;;;70.78;;
19205;SDS011;59358;52.134;5.596;2023-02-23T05:27:34;199.20;;;69.35;;
19205;SDS011;59358;52.134;5.596;2023-02-23T05:30:01;197.13;;;69.25;;
19205;SDS011;59358;52.134;5.596;2023-02-23T05:32:28;198.23;;;69.07;;
19205;SDS011;59358;52.134;5.596;2023-02-23T05:34:55;192.95;;;67.90;;
19205;SDS011;59358;52.134;5.596;2023-02-23T05:37:22;189.75;;;67.78;;
19205;SDS011;59358;52.134;5.596;2023-02-23T05:39:49;180.50;;;67.07;;
19205;SDS011;59358;52.134;5.596;2023-02-23T05:42:17;196.88;;;71.05;;
19205;SDS011;59358;52.134;5.596;2023-02-23T05:44:44;197.10;;;70.47;;
19205;SDS011;59358;52.134;5.596;2023-02-23T05:47:11;190.88;;;68.13;;
19205;SDS011;59358;52.134;5.596;2023-02-23T05:49:37;199.70;;;69.75;;
19205;SDS011;59358;52.134;5.596;2023-02-23T05:52:05;191.70;;;68.10;;
19205;SDS011;59358;52.134;5.596;2023-02-23T05:54:32;200.05;;;69.43;;
19205;SDS011;59358;52.134;5.596;2023-02-23T05:56:59;203.27;;;69.78;;
19205;SDS011;59358;52.134;5.596;2023-02-23T05:59:27;196.57;;;70.28;;
19205;SDS011;59358;52.134;5.596;2023-02-23T06:01:54;192.57;;;69.47;;
19205;SDS011;59358;52.134;5.596;2023-02-23T06:04:21;201.50;;;68.57;;
19205;SDS011;59358;52.134;5.596;2023-02-23T06:06:48;193.32;;;66.07;;
19205;SDS011;59358;52.134;5.596;2023-02-23T06:09:15;190.23;;;65.68;;
19205;SDS011;59358;52.134;5.596;2023-02-23T06:11:42;192.43;;;67.60;;
19205;SDS011;59358;52.134;5.596;2023-02-23T06:14:09;203.32;;;69.90;;
19205;SDS011;59358;52.134;5.596;2023-02-23T06:16:37;204.02;;;69.13;;
19205;SDS011;59358;52.134;5.596;2023-02-23T06:19:04;244.23;;;90.05;;
19205;SDS011;59358;52.134;5.596;2023-02-23T06:21:31;259.02;;;90.53;;
19205;SDS011;59358;52.134;5.596;2023-02-23T06:23:58;237.32;;;81.15;;
19205;SDS011;59358;52.134;5.596;2023-02-23T06:26:25;246.20;;;76.75;;
19205;SDS011;59358;52.134;5.596;2023-02-23T06:28:52;235.48;;;74.38;;
19205;SDS011;59358;52.134;5.596;2023-02-23T06:31:19;249.13;;;76.43;;
19205;SDS011;59358;52.134;5.596;2023-02-23T06:33:47;240.13;;;75.30;;
19205;SDS011;59358;52.134;5.596;2023-02-23T06:36:15;243.38;;;74.18;;
19205;SDS011;59358;52.134;5.596;2023-02-23T06:38:42;243.82;;;78.50;;
19205;SDS011;59358;52.134;5.596;2023-02-23T06:41:09;253.30;;;76.68;;
19205;SDS011;59358;52.134;5.596;2023-02-23T06:43:36;260.88;;;83.45;;
19205;SDS011;59358;52.134;5.596;2023-02-23T06:46:03;235.05;;;74.28;;
19205;SDS011;59358;52.134;5.596;2023-02-23T06:48:30;252.60;;;78.45;;
19205;SDS011;59358;52.134;5.596;2023-02-23T06:50:59;270.52;;;84.70;;
19205;SDS011;59358;52.134;5.596;2023-02-23T06:53:26;261.27;;;81.43;;
19205;SDS011;59358;52.134;5.596;2023-02-23T06:55:54;258.17;;;78.30;;
19205;SDS011;59358;52.134;5.596;2023-02-23T06:58:21;251.52;;;77.15;;
19205;SDS011;59358;52.134;5.596;2023-02-23T07:00:48;270.67;;;83.68;;
19205;SDS011;59358;52.134;5.596;2023-02-23T07:03:14;230.73;;;73.32;;
19205;SDS011;59358;52.134;5.596;2023-02-23T07:05:43;257.50;;;78.63;;
19205;SDS011;59358;52.134;5.596;2023-02-23T07:08:11;240.98;;;73.72;;
19205;SDS011;59358;52.134;5.596;2023-02-23T07:10:38;247.02;;;79.63;;
19205;SDS011;59358;52.134;5.596;2023-02-23T07:13:05;261.55;;;81.45;;
19205;SDS011;59358;52.134;5.596;2023-02-23T07:15:33;246.48;;;78.15;;
19205;SDS011;59358;52.134;5.596;2023-02-23T07:18:00;254.23;;;77.18;;
19205;SDS011;59358;52.134;5.596;2023-02-23T07:20:28;248.35;;;74.03;;
19205;SDS011;59358;52.134;5.596;2023-02-23T07:22:55;262.42;;;86.13;;
19205;SDS011;59358;52.134;5.596;2023-02-23T07:25:23;248.43;;;78.03;;
19205;SDS011;59358;52.134;5.596;2023-02-23T07:27:50;258.75;;;78.40;;
19205;SDS011;59358;52.134;5.596;2023-02-23T07:30:18;254.15;;;76.38;;
19205;SDS011;59358;52.134;5.596;2023-02-23T07:32:54;255.18;;;77.22;;
19205;SDS011;59358;52.134;5.596;2023-02-23T07:35:56;247.80;;;77.07;;
19205;SDS011;59358;52.134;5.596;2023-02-23T07:38:25;259.70;;;78.22;;
19205;SDS011;59358;52.134;5.596;2023-02-23T07:40:57;264.40;;;85.25;;
19205;SDS011;59358;52.134;5.596;2023-02-23T07:43:34;247.80;;;79.57;;
19205;SDS011;59358;52.134;5.596;2023-02-23T07:46:12;253.70;;;82.28;;
19205;SDS011;59358;52.134;5.596;2023-02-23T07:48:54;263.50;;;83.00;;
19205;SDS011;59358;52.134;5.596;2023-02-23T07:51:21;233.82;;;75.30;;
19205;SDS011;59358;52.134;5.596;2023-02-23T07:54:19;227.98;;;74.25;;
19205;SDS011;59358;52.134;5.596;2023-02-23T07:56:54;245.00;;;74.63;;
19205;SDS011;59358;52.134;5.596;2023-02-23T07:59:24;218.98;;;71.47;;
19205;SDS011;59358;52.134;5.596;2023-02-23T08:02:17;220.60;;;71.25;;
19205;SDS011;59358;52.134;5.596;2023-02-23T08:04:59;215.65;;;71.38;;
19205;SDS011;59358;52.134;5.596;2023-02-23T08:07:32;219.68;;;69.85;;
19205;SDS011;59358;52.134;5.596;2023-02-23T08:10:27;207.80;;;68.50;;
19205;SDS011;59358;52.134;5.596;2023-02-23T08:12:57;227.85;;;78.45;;
19205;SDS011;59358;52.134;5.596;2023-02-23T08:15:30;208.23;;;71.53;;
19205;SDS011;59358;52.134;5.596;2023-02-23T08:18:08;202.88;;;67.97;;
19205;SDS011;59358;52.134;5.596;2023-02-23T08:20:55;205.57;;;68.72;;
19205;SDS011;59358;52.134;5.596;2023-02-23T08:23:33;197.85;;;66.97;;
19205;SDS011;59358;52.134;5.596;2023-02-23T08:26:00;200.23;;;65.93;;
19205;SDS011;59358;52.134;5.596;2023-02-23T08:28:31;200.32;;;68.63;;
19205;SDS011;59358;52.134;5.596;2023-02-23T08:30:59;183.93;;;64.57;;
19205;SDS011;59358;52.134;5.596;2023-02-23T08:36:40;174.35;;;59.92;;
19205;SDS011;59358;52.134;5.596;2023-02-23T08:42:46;172.32;;;60.35;;
19205;SDS011;59358;52.134;5.596;2023-02-23T08:49:35;180.02;;;60.92;;
19205;SDS011;59358;52.134;5.596;2023-02-23T08:53:23;165.52;;;58.42;;
19205;SDS011;59358;52.134;5.596;2023-02-23T08:55:47;148.27;;;56.90;;
19205;SDS011;59358;52.134;5.596;2023-02-23T08:58:14;153.05;;;55.05;;
19205;SDS011;59358;52.134;5.596;2023-02-23T09:00:40;145.00;;;53.88;;
19205;SDS011;59358;52.134;5.596;2023-02-23T09:03:08;138.82;;;53.05;;
19205;SDS011;59358;52.134;5.596;2023-02-23T09:05:36;175.15;;;70.43;;
19205;SDS011;59358;52.134;5.596;2023-02-23T09:08:04;134.50;;;52.97;;
19205;SDS011;59358;52.134;5.596;2023-02-23T09:10:31;136.43;;;51.70;;
19205;SDS011;59358;52.134;5.596;2023-02-23T09:12:58;127.03;;;50.33;;
19205;SDS011;59358;52.134;5.596;2023-02-23T09:15:24;131.60;;;51.53;;
19205;SDS011;59358;52.134;5.596;2023-02-23T09:17:51;122.65;;;48.00;;
19205;SDS011;59358;52.134;5.596;2023-02-23T09:20:18;131.02;;;51.03;;
19205;SDS011;59358;52.134;5.596;2023-02-23T09:22:52;126.22;;;50.08;;
19205;SDS011;59358;52.134;5.596;2023-02-23T09:25:19;121.95;;;46.17;;
19205;SDS011;59358;52.134;5.596;2023-02-23T09:27:47;118.22;;;45.25;;
19205;SDS011;59358;52.134;5.596;2023-02-23T09:30:14;101.28;;;41.65;;
19205;SDS011;59358;52.134;5.596;2023-02-23T09:32:44;100.25;;;42.72;;
19205;SDS011;59358;52.134;5.596;2023-02-23T09:35:12;118.35;;;45.30;;
19205;SDS011;59358;52.134;5.596;2023-02-23T09:37:42;94.90;;;40.42;;
19205;SDS011;59358;52.134;5.596;2023-02-23T09:40:14;99.55;;;38.85;;
19205;SDS011;59358;52.134;5.596;2023-02-23T09:42:44;92.72;;;39.53;;
19205;SDS011;59358;52.134;5.596;2023-02-23T09:45:22;89.97;;;37.40;;
19205;SDS011;59358;52.134;5.596;2023-02-23T09:47:59;87.07;;;36.28;;
19205;SDS011;59358;52.134;5.596;2023-02-23T09:50:34;80.25;;;33.92;;
19205;SDS011;59358;52.134;5.596;2023-02-23T09:53:03;86.88;;;38.53;;
19205;SDS011;59358;52.134;5.596;2023-02-23T09:55:40;79.97;;;35.03;;
19205;SDS011;59358;52.134;5.596;2023-02-23T09:58:14;87.65;;;38.33;;
19205;SDS011;59358;52.134;5.596;2023-02-23T10:00:48;95.22;;;40.50;;
19205;SDS011;59358;52.134;5.596;2023-02-23T10:03:27;95.03;;;37.25;;
19205;SDS011;59358;52.134;5.596;2023-02-23T10:05:58;87.95;;;36.08;;
19205;SDS011;59358;52.134;5.596;2023-02-23T10:08:31;88.88;;;38.33;;
19205;SDS011;59358;52.134;5.596;2023-02-23T10:11:13;84.55;;;35.40;;
19205;SDS011;59358;52.134;5.596;2023-02-23T10:13:50;87.13;;;34.03;;
19205;SDS011;59358;52.134;5.596;2023-02-23T10:16:37;90.15;;;38.15;;
19205;SDS011;59358;52.134;5.596;2023-02-23T10:19:16;83.60;;;35.13;;
19205;SDS011;59358;52.134;5.596;2023-02-23T10:21:50;77.40;;;33.90;;
19205;SDS011;59358;52.134;5.596;2023-02-23T10:24:21;89.63;;;36.28;;
19205;SDS011;59358;52.134;5.596;2023-02-23T10:26:55;85.63;;;34.65;;
19205;SDS011;59358;52.134;5.596;2023-02-23T10:29:25;83.97;;;36.47;;
19205;SDS011;59358;52.134;5.596;2023-02-23T10:31:57;81.55;;;34.28;;
19205;SDS011;59358;52.134;5.596;2023-02-23T10:34:27;78.75;;;33.10;;
19205;SDS011;59358;52.134;5.596;2023-02-23T10:36:57;77.70;;;32.10;;
19205;SDS011;59358;52.134;5.596;2023-02-23T10:39:25;83.63;;;33.25;;
19205;SDS011;59358;52.134;5.596;2023-02-23T10:41:55;85.82;;;33.78;;
19205;SDS011;59358;52.134;5.596;2023-02-23T10:44:23;74.10;;;31.48;;
19205;SDS011;59358;52.134;5.596;2023-02-23T10:46:53;78.95;;;35.42;;
19205;SDS011;59358;52.134;5.596;2023-02-23T10:49:24;75.60;;;32.05;;
19205;SDS011;59358;52.134;5.596;2023-02-23T10:51:54;72.78;;;31.88;;
19205;SDS011;59358;52.134;5.596;2023-02-23T10:54:37;76.15;;;31.92;;
19205;SDS011;59358;52.134;5.596;2023-02-23T10:57:10;75.00;;;31.52;;
19205;SDS011;59358;52.134;5.596;2023-02-23T10:59:42;74.43;;;31.77;;
19205;SDS011;59358;52.134;5.596;2023-02-23T11:02:26;75.53;;;32.38;;
19205;SDS011;59358;52.134;5.596;2023-02-23T11:04:57;64.78;;;29.75;;
19205;SDS011;59358;52.134;5.596;2023-02-23T11:07:25;63.85;;;27.48;;
19205;SDS011;59358;52.134;5.596;2023-02-23T11:09:54;61.70;;;27.58;;
19205;SDS011;59358;52.134;5.596;2023-02-23T11:12:23;60.85;;;27.27;;
19205;SDS011;59358;52.134;5.596;2023-02-23T11:14:54;57.67;;;26.25;;
19205;SDS011;59358;52.134;5.596;2023-02-23T11:17:23;64.82;;;27.00;;
19205;SDS011;59358;52.134;5.596;2023-02-23T11:19:56;55.25;;;26.73;;
19205;SDS011;59358;52.134;5.596;2023-02-23T11:22:30;58.70;;;26.83;;
19205;SDS011;59358;52.134;5.596;2023-02-23T11:25:00;61.90;;;26.38;;
19205;SDS011;59358;52.134;5.596;2023-02-23T11:27:32;58.90;;;25.83;;
19205;SDS011;59358;52.134;5.596;2023-02-23T11:30:02;56.58;;;25.63;;
19205;SDS011;59358;52.134;5.596;2023-02-23T11:32:32;49.00;;;22.73;;
19205;SDS011;59358;52.134;5.596;2023-02-23T11:35:10;52.95;;;23.63;;
19205;SDS011;59358;52.134;5.596;2023-02-23T11:37:51;55.55;;;26.13;;
19205;SDS011;59358;52.134;5.596;2023-02-23T11:40:20;54.72;;;24.58;;
19205;SDS011;59358;52.134;5.596;2023-02-23T11:42:54;43.38;;;19.90;;
19205;SDS011;59358;52.134;5.596;2023-02-23T11:45:22;35.70;;;17.67;;
19205;SDS011;59358;52.134;5.596;2023-02-23T11:47:53;32.15;;;16.92;;
19205;SDS011;59358;52.134;5.596;2023-02-23T11:50:24;40.38;;;16.77;;
19205;SDS011;59358;52.134;5.596;2023-02-23T11:52:59;33.58;;;16.20;;
19205;SDS011;59358;52.134;5.596;2023-02-23T11:55:29;36.40;;;17.05;;
19205;SDS011;59358;52.134;5.596;2023-02-23T11:58:13;33.85;;;16.52;;
19205;SDS011;59358;52.134;5.596;2023-02-23T12:00:53;41.42;;;18.52;;
19205;SDS011;59358;52.134;5.596;2023-02-23T12:03:21;38.28;;;17.30;;
19205;SDS011;59358;52.134;5.596;2023-02-23T12:05:52;38.08;;;17.15;;
19205;SDS011;59358;52.134;5.596;2023-02-23T12:08:25;40.83;;;17.98;;
19205;SDS011;59358;52.134;5.596;2023-02-23T12:11:03;35.72;;;17.35;;
19205;SDS011;59358;52.134;5.596;2023-02-23T12:13:37;40.05;;;18.67;;
19205;SDS011;59358;52.134;5.596;2023-02-23T12:16:10;40.85;;;19.10;;
19205;SDS011;59358;52.134;5.596;2023-02-23T12:18:43;45.63;;;18.48;;
19205;SDS011;59358;52.134;5.596;2023-02-23T12:21:17;41.30;;;18.38;;
19205;SDS011;59358;52.134;5.596;2023-02-23T12:23:56;39.83;;;17.35;;
19205;SDS011;59358;52.134;5.596;2023-02-23T12:26:30;39.05;;;17.17;;
19205;SDS011;59358;52.134;5.596;2023-02-23T12:29:09;40.20;;;18.75;;
19205;SDS011;59358;52.134;5.596;2023-02-23T12:31:45;39.00;;;17.20;;
19205;SDS011;59358;52.134;5.596;2023-02-23T12:34:18;33.30;;;15.68;;
19205;SDS011;59358;52.134;5.596;2023-02-23T12:36:51;41.63;;;18.55;;
19205;SDS011;59358;52.134;5.596;2023-02-23T12:39:23;36.85;;;16.67;;
19205;SDS011;59358;52.134;5.596;2023-02-23T12:41:56;35.50;;;17.85;;
19205;SDS011;59358;52.134;5.596;2023-02-23T12:44:36;38.17;;;17.13;;
19205;SDS011;59358;52.134;5.596;2023-02-23T12:47:10;33.75;;;15.68;;
19205;SDS011;59358;52.134;5.596;2023-02-23T12:49:46;26.98;;;13.75;;
19205;SDS011;59358;52.134;5.596;2023-02-23T12:52:18;29.20;;;14.13;;
19205;SDS011;59358;52.134;5.596;2023-02-23T12:54:50;24.88;;;12.68;;
19205;SDS011;59358;52.134;5.596;2023-02-23T12:57:20;27.58;;;13.38;;
19205;SDS011;59358;52.134;5.596;2023-02-23T13:00:01;23.20;;;12.38;;
19205;SDS011;59358;52.134;5.596;2023-02-23T13:02:57;24.35;;;13.40;;
19205;SDS011;59358;52.134;5.596;2023-02-23T13:05:53;23.75;;;12.48;;
19205;SDS011;59358;52.134;5.596;2023-02-23T13:08:28;29.13;;;13.77;;
19205;SDS011;59358;52.134;5.596;2023-02-23T13:11:09;26.88;;;14.35;;
19205;SDS011;59358;52.134;5.596;2023-02-23T13:13:43;25.33;;;12.70;;
19205;SDS011;59358;52.134;5.596;2023-02-23T13:16:17;29.92;;;15.30;;
19205;SDS011;59358;52.134;5.596;2023-02-23T13:18:51;29.92;;;13.38;;
19205;SDS011;59358;52.134;5.596;2023-02-23T13:21:27;28.48;;;13.68;;
19205;SDS011;59358;52.134;5.596;2023-02-23T13:24:00;31.60;;;16.60;;
19205;SDS011;59358;52.134;5.596;2023-02-23T13:26:33;30.70;;;15.43;;
19205;SDS011;59358;52.134;5.596;2023-02-23T13:29:10;37.90;;;16.13;;
19205;SDS011;59358;52.134;5.596;2023-02-23T13:31:51;36.47;;;15.68;;
19205;SDS011;59358;52.134;5.596;2023-02-23T13:34:22;30.75;;;14.35;;
19205;SDS011;59358;52.134;5.596;2023-02-23T13:36:50;33.78;;;15.20;;
19205;SDS011;59358;52.134;5.596;2023-02-23T13:39:30;30.42;;;15.35;;
19205;SDS011;59358;52.134;5.596;2023-02-23T13:42:18;29.85;;;14.57;;
19205;SDS011;59358;52.134;5.596;2023-02-23T13:44:54;28.45;;;14.05;;
19205;SDS011;59358;52.134;5.596;2023-02-23T13:47:31;31.10;;;14.38;;
19205;SDS011;59358;52.134;5.596;2023-02-23T13:50:05;32.00;;;15.32;;
19205;SDS011;59358;52.134;5.596;2023-02-23T13:52:41;32.13;;;15.85;;
19205;SDS011;59358;52.134;5.596;2023-02-23T13:58:03;31.73;;;16.27;;
19205;SDS011;59358;52.134;5.596;2023-02-23T14:00:31;37.05;;;16.65;;
19205;SDS011;59358;52.134;5.596;2023-02-23T14:03:02;32.80;;;16.05;;
19205;SDS011;59358;52.134;5.596;2023-02-23T14:05:36;29.13;;;14.40;;
19205;SDS011;59358;52.134;5.596;2023-02-23T14:08:17;26.42;;;13.90;;
19205;SDS011;59358;52.134;5.596;2023-02-23T14:10:47;28.33;;;14.10;;
19205;SDS011;59358;52.134;5.596;2023-02-23T14:13:25;27.27;;;13.25;;
19205;SDS011;59358;52.134;5.596;2023-02-23T14:18:52;27.50;;;13.77;;
19205;SDS011;59358;52.134;5.596;2023-02-23T14:21:31;29.02;;;14.30;;
19205;SDS011;59358;52.134;5.596;2023-02-23T14:24:04;28.35;;;13.02;;
19205;SDS011;59358;52.134;5.596;2023-02-23T14:26:42;30.88;;;14.23;;
19205;SDS011;59358;52.134;5.596;2023-02-23T14:29:24;32.88;;;14.40;;
19205;SDS011;59358;52.134;5.596;2023-02-23T14:32:00;34.65;;;15.73;;
19205;SDS011;59358;52.134;5.596;2023-02-23T14:34:47;42.88;;;17.67;;
19205;SDS011;59358;52.134;5.596;2023-02-23T14:37:28;42.20;;;18.85;;
19205;SDS011;59358;52.134;5.596;2023-02-23T14:40:00;39.53;;;18.35;;
19205;SDS011;59358;52.134;5.596;2023-02-23T14:42:37;41.78;;;19.13;;
19205;SDS011;59358;52.134;5.596;2023-02-23T14:45:11;41.92;;;18.55;;
19205;SDS011;59358;52.134;5.596;2023-02-23T14:47:45;38.30;;;17.70;;
19205;SDS011;59358;52.134;5.596;2023-02-23T14:50:16;39.65;;;18.67;;
19205;SDS011;59358;52.134;5.596;2023-02-23T14:52:53;51.45;;;21.23;;
19205;SDS011;59358;52.134;5.596;2023-02-23T14:55:23;56.85;;;21.95;;
19205;SDS011;59358;52.134;5.596;2023-02-23T14:57:51;44.75;;;19.48;;
19205;SDS011;59358;52.134;5.596;2023-02-23T15:00:19;48.45;;;20.45;;
19205;SDS011;59358;52.134;5.596;2023-02-23T15:02:52;48.42;;;21.58;;
19205;SDS011;59358;52.134;5.596;2023-02-23T15:05:26;44.90;;;21.23;;
19205;SDS011;59358;52.134;5.596;2023-02-23T15:07:56;58.95;;;24.88;;
19205;SDS011;59358;52.134;5.596;2023-02-23T15:10:27;57.20;;;24.27;;
19205;SDS011;59358;52.134;5.596;2023-02-23T15:12:57;57.63;;;25.05;;